createdAt,value
2023-04-09T00:00:13.676Z,101627.34
2023-04-09T00:02:42.047Z,101622.25
2023-04-09T00:05:10.203Z,101625.41
2023-04-09T00:07:38.221Z,101616.44
2023-04-09T00:10:07.764Z,101626.13
2023-04-09T00:12:37.691Z,101627.19
2023-04-09T00:15:09.604Z,101627.53
2023-04-09T00:17:39.397Z,101628.13
2023-04-09T00:20:08.885Z,101629.31
2023-04-09T00:22:36.685Z,101634.63
2023-04-09T00:25:06.018Z,101640.75
2023-04-09T00:27:33.813Z,101638.84
2023-04-09T00:30:03.252Z,101636.75
2023-04-09T00:32:31.342Z,101633.22
2023-04-09T00:34:59.109Z,101632.06
2023-04-09T00:37:26.983Z,101632.50
2023-04-09T00:39:54.766Z,101622.72
2023-04-09T00:42:22.997Z,101632.19
2023-04-09T00:44:51.440Z,101628.94
2023-04-09T00:47:20.675Z,101626.44
2023-04-09T00:49:48.690Z,101623.59
2023-04-09T00:52:16.692Z,101625.78
2023-04-09T00:54:44.554Z,101615.88
2023-04-09T00:57:12.442Z,101626.19
2023-04-09T00:59:40.570Z,101622.00
2023-04-09T01:02:08.532Z,101631.53
2023-04-09T01:04:41.612Z,101620.56
2023-04-09T01:07:23.491Z,101611.22
2023-04-09T01:10:05.255Z,101620.78
2023-04-09T01:12:46.357Z,101621.25
2023-04-09T01:15:25.486Z,101620.53
2023-04-09T01:18:05.176Z,101617.81
2023-04-09T01:20:40.526Z,101616.34
2023-04-09T01:23:19.721Z,101631.09
2023-04-09T01:26:05.562Z,101627.38
2023-04-09T01:28:47.680Z,101626.66
2023-04-09T01:31:19.973Z,101635.53
2023-04-09T01:33:47.773Z,101634.22
2023-04-09T01:36:16.614Z,101630.50
2023-04-09T01:38:49.915Z,101627.56
2023-04-09T01:41:21.780Z,101632.03
2023-04-09T01:43:52.210Z,101630.59
2023-04-09T01:46:22.590Z,101628.13
2023-04-09T01:48:52.156Z,101622.63
2023-04-09T01:51:20.294Z,101625.66
2023-04-09T01:53:48.830Z,101621.91
2023-04-09T01:56:16.624Z,101629.97
2023-04-09T01:58:44.484Z,101626.22
2023-04-09T02:01:22.954Z,101623.47
2023-04-09T02:03:56.418Z,101623.91
2023-04-09T02:06:34.555Z,101620.72
2023-04-09T02:09:07.535Z,101625.88
2023-04-09T02:11:40.677Z,101619.47
2023-04-09T02:14:11.071Z,101606.50
2023-04-09T02:16:41.539Z,101612.72
2023-04-09T02:19:10.984Z,101620.34
2023-04-09T02:21:38.979Z,101617.16
2023-04-09T02:24:06.840Z,101615.22
2023-04-09T02:26:35.049Z,101611.81
2023-04-09T02:29:03.012Z,101613.41
2023-04-09T02:31:30.818Z,101602.66
2023-04-09T02:34:00.065Z,101600.97
2023-04-09T02:36:27.922Z,101608.25
2023-04-09T02:38:56.407Z,101599.53
2023-04-09T02:41:24.864Z,101602.75
2023-04-09T02:43:52.876Z,101599.19
2023-04-09T02:46:20.797Z,101596.78
2023-04-09T02:48:49.364Z,101587.94
2023-04-09T02:51:20.420Z,101593.69
2023-04-09T02:53:48.612Z,101590.94
2023-04-09T02:56:16.337Z,101585.84
2023-04-09T02:58:44.142Z,101586.06
2023-04-09T03:01:12.022Z,101580.97
2023-04-09T03:03:42.175Z,101579.03
2023-04-09T03:06:10.577Z,101581.44
2023-04-09T03:08:39.859Z,101574.50
2023-04-09T03:11:07.915Z,101581.84
2023-04-09T03:13:35.880Z,101575.53
2023-04-09T03:16:04.193Z,101570.56
2023-04-09T03:18:32.079Z,101566.06
2023-04-09T03:20:59.862Z,101566.94
2023-04-09T03:23:34.725Z,101574.47
2023-04-09T03:26:06.179Z,101571.63
2023-04-09T03:28:44.614Z,101570.03
2023-04-09T03:31:14.086Z,101571.25
2023-04-09T03:33:43.274Z,101567.16
2023-04-09T03:36:12.142Z,101566.88
2023-04-09T03:38:51.951Z,101569.41
2023-04-09T03:41:32.894Z,101566.53
2023-04-09T03:44:05.190Z,101570.81
2023-04-09T03:46:41.623Z,101568.06
2023-04-09T03:49:13.681Z,101560.50
2023-04-09T03:51:44.499Z,101560.84
2023-04-09T03:54:12.990Z,101559.75
2023-04-09T03:56:43.059Z,101563.94
2023-04-09T03:59:13.508Z,101561.88
2023-04-09T04:01:45.411Z,101564.94
2023-04-09T04:04:14.145Z,101567.72
2023-04-09T04:06:45.253Z,101564.31
2023-04-09T04:09:29.145Z,101567.19
2023-04-09T04:12:03.219Z,101566.50
2023-04-09T04:14:54.811Z,101571.25
2023-04-09T04:17:32.953Z,101563.34
2023-04-09T04:20:03.092Z,101568.03
2023-04-09T04:22:35.943Z,101566.59
2023-04-09T04:25:06.510Z,101570.34
2023-04-09T04:27:35.682Z,101570.84
2023-04-09T04:30:04.567Z,101561.16
2023-04-09T04:32:50.755Z,101565.88
2023-04-09T04:35:19.156Z,101569.84
2023-04-09T04:37:49.897Z,101571.06
2023-04-09T04:40:18.260Z,101565.91
2023-04-09T04:42:52.399Z,101573.16
2023-04-09T04:45:20.219Z,101570.59
2023-04-09T04:47:53.606Z,101570.31
2023-04-09T04:50:21.551Z,101571.69
2023-04-09T04:53:00.585Z,101571.31
2023-04-09T04:55:36.325Z,101571.81
2023-04-09T04:58:06.457Z,101571.00
2023-04-09T05:00:43.331Z,101576.25
2023-04-09T05:03:12.011Z,101582.09
2023-04-09T05:06:02.166Z,101589.00
2023-04-09T05:08:37.482Z,101571.50
2023-04-09T05:11:05.701Z,101579.50
2023-04-09T05:13:39.276Z,101585.44
2023-04-09T05:16:17.514Z,101585.34
2023-04-09T05:18:48.588Z,101581.59
2023-04-09T05:21:17.032Z,101587.13
2023-04-09T05:23:46.299Z,101582.75
2023-04-09T05:26:14.116Z,101582.75
2023-04-09T05:28:52.740Z,101585.56
2023-04-09T05:31:23.542Z,101582.69
2023-04-09T05:33:58.986Z,101579.22
2023-04-09T05:36:36.199Z,101580.72
2023-04-09T05:39:04.333Z,101583.47
2023-04-09T05:41:33.479Z,101580.09
2023-04-09T05:44:28.430Z,101581.47
2023-04-09T05:47:03.093Z,101583.63
2023-04-09T05:49:41.657Z,101583.66
2023-04-09T05:52:14.616Z,101580.81
2023-04-09T05:54:42.631Z,101583.81
2023-04-09T05:57:12.120Z,101581.06
2023-04-09T05:59:45.271Z,101587.13
2023-04-09T06:02:13.222Z,101586.97
2023-04-09T06:04:41.402Z,101592.25
2023-04-09T06:07:09.306Z,101581.59
2023-04-09T06:09:38.023Z,101581.03
2023-04-09T06:12:05.938Z,101583.81
2023-04-09T06:14:33.751Z,101577.31
2023-04-09T06:17:03.461Z,101578.31
2023-04-09T06:19:31.512Z,101576.31
2023-04-09T06:21:59.253Z,101574.88
2023-04-09T06:24:27.110Z,101575.06
2023-04-09T06:26:55.342Z,101571.19
2023-04-09T06:29:24.371Z,101564.88
2023-04-09T06:31:52.644Z,101576.50
2023-04-09T06:34:21.869Z,101568.75
2023-04-09T06:36:49.663Z,101574.44
2023-04-09T06:39:17.475Z,101576.31
2023-04-09T06:41:46.388Z,101579.19
2023-04-09T06:44:26.834Z,101582.19
2023-04-09T06:46:54.682Z,101582.66
2023-04-09T06:49:24.016Z,101580.06
2023-04-09T06:51:53.555Z,101584.44
2023-04-09T06:54:21.320Z,101590.03
2023-04-09T06:56:49.181Z,101588.94
2023-04-09T06:59:16.906Z,101585.41
2023-04-09T07:01:45.777Z,101588.94
2023-04-09T07:04:13.677Z,101587.00
2023-04-09T07:06:42.867Z,101583.03
2023-04-09T07:09:11.061Z,101581.78
2023-04-09T07:11:38.839Z,101582.03
2023-04-09T07:14:06.632Z,101582.09
2023-04-09T07:16:34.486Z,101582.50
2023-04-09T07:19:02.409Z,101591.47
2023-04-09T07:21:30.393Z,101583.94
2023-04-09T07:23:59.563Z,101590.75
2023-04-09T07:26:27.422Z,101586.56
2023-04-09T07:28:56.078Z,101590.09
2023-04-09T07:31:23.986Z,101583.41
2023-04-09T07:33:51.979Z,101582.03
2023-04-09T07:36:20.020Z,101585.19
2023-04-09T07:38:47.775Z,101572.69
2023-04-09T07:41:17.016Z,101584.22
2023-04-09T07:43:44.807Z,101585.28
2023-04-09T07:46:19.803Z,101582.03
2023-04-09T07:48:49.378Z,101577.97
2023-04-09T07:51:17.344Z,101580.34
2023-04-09T07:53:45.230Z,101582.66
2023-04-09T07:56:13.628Z,101583.66
2023-04-09T07:58:43.044Z,101581.19
2023-04-09T08:01:10.840Z,101584.88
2023-04-09T08:03:38.761Z,101581.06
2023-04-09T08:06:07.212Z,101598.66
2023-04-09T08:08:35.693Z,101588.41
2023-04-09T08:11:04.064Z,101582.34
2023-04-09T08:13:31.846Z,101582.94
2023-04-09T08:16:02.650Z,101581.94
2023-04-09T08:18:30.491Z,101581.91
2023-04-09T08:20:58.301Z,101578.38
2023-04-09T08:23:26.303Z,101573.44
2023-04-09T08:25:54.020Z,101583.13
2023-04-09T08:28:21.772Z,101581.50
2023-04-09T08:30:50.058Z,101579.03
2023-04-09T08:33:19.142Z,101582.91
2023-04-09T08:35:47.033Z,101587.97
2023-04-09T08:38:15.889Z,101577.75
2023-04-09T08:40:43.734Z,101578.53
2023-04-09T08:43:18.880Z,101576.78
2023-04-09T08:45:47.399Z,101575.00
2023-04-09T08:48:17.993Z,101575.06
2023-04-09T08:50:47.569Z,101576.22
2023-04-09T08:53:17.516Z,101571.94
2023-04-09T08:55:46.302Z,101578.28
2023-04-09T08:58:14.488Z,101564.03
2023-04-09T09:00:42.432Z,101573.56
2023-04-09T09:03:15.995Z,101576.53
2023-04-09T09:05:46.906Z,101575.16
2023-04-09T09:08:24.768Z,101570.53
2023-04-09T09:10:52.732Z,101566.28
2023-04-09T09:13:23.571Z,101566.03
2023-04-09T09:15:55.229Z,101571.38
2023-04-09T09:18:41.054Z,101568.03
2023-04-09T09:21:15.620Z,101560.50
2023-04-09T09:23:44.232Z,101558.00
2023-04-09T09:26:13.777Z,101564.25
2023-04-09T09:28:42.072Z,101562.78
2023-04-09T09:31:11.923Z,101555.03
2023-04-09T09:33:40.852Z,101555.03
2023-04-09T09:36:09.490Z,101550.63
2023-04-09T09:38:56.318Z,101549.75
2023-04-09T09:41:25.825Z,101553.22
2023-04-09T09:43:53.626Z,101543.63
2023-04-09T09:46:22.864Z,101553.28
2023-04-09T09:48:51.106Z,101549.72
2023-04-09T09:51:25.844Z,101565.50
2023-04-09T09:53:57.158Z,101550.63
2023-04-09T09:56:32.645Z,101544.44
2023-04-09T09:59:07.848Z,101547.97
2023-04-09T10:01:36.605Z,101543.59
2023-04-09T10:04:13.287Z,101540.94
2023-04-09T10:06:45.054Z,101539.22
2023-04-09T10:09:16.044Z,101528.69
2023-04-09T10:11:47.944Z,101533.94
2023-04-09T10:14:17.668Z,101527.75
2023-04-09T10:16:46.925Z,101521.59
2023-04-09T10:19:15.612Z,101519.91
2023-04-09T10:21:53.422Z,101518.09
2023-04-09T10:24:24.122Z,101511.97
2023-04-09T10:26:55.006Z,101510.00
2023-04-09T10:29:29.194Z,101505.75
2023-04-09T10:32:06.242Z,101504.84
2023-04-09T10:34:38.495Z,101495.88
2023-04-09T10:37:12.287Z,101501.34
2023-04-09T10:39:47.310Z,101500.56
2023-04-09T10:42:20.508Z,101495.31
2023-04-09T10:45:06.848Z,101497.00
2023-04-09T10:47:37.914Z,101487.97
2023-04-09T10:50:18.746Z,101493.22
2023-04-09T10:52:51.776Z,101486.38
2023-04-09T10:55:37.506Z,101499.63
2023-04-09T10:58:12.696Z,101491.66
2023-04-09T11:00:44.438Z,101497.69
2023-04-09T11:03:22.389Z,101486.22
2023-04-09T11:06:02.697Z,101487.94
2023-04-09T11:08:33.185Z,101488.13
2023-04-09T11:11:03.484Z,101480.34
2023-04-09T11:13:32.859Z,101489.91
2023-04-09T11:16:03.352Z,101496.84
2023-04-09T11:18:33.817Z,101491.50
2023-04-09T11:21:04.412Z,101475.00
2023-04-09T11:23:33.453Z,101478.53
2023-04-09T11:26:02.801Z,101462.81
2023-04-09T11:28:30.734Z,101472.44
2023-04-09T11:30:58.550Z,101472.41
2023-04-09T11:33:33.182Z,101463.69
2023-04-09T11:36:01.733Z,101463.50
2023-04-09T11:38:31.587Z,101464.13
2023-04-09T11:40:59.426Z,101447.00
2023-04-09T11:43:28.634Z,101457.66
2023-04-09T11:45:57.669Z,101458.22
2023-04-09T11:48:25.956Z,101453.22
2023-04-09T11:50:54.464Z,101447.88
2023-04-09T11:53:23.736Z,101453.53
2023-04-09T11:55:53.464Z,101446.56
2023-04-09T11:58:24.096Z,101453.88
2023-04-09T12:00:56.064Z,101451.94
2023-04-09T12:03:30.696Z,101454.34
2023-04-09T12:06:01.773Z,101454.50
2023-04-09T12:08:31.107Z,101447.03
2023-04-09T12:11:09.132Z,101452.69
2023-04-09T12:13:37.028Z,101445.63
2023-04-09T12:16:06.303Z,101450.25
2023-04-09T12:18:37.412Z,101449.38
2023-04-09T12:21:06.170Z,101454.81
2023-04-09T12:23:33.963Z,101452.19
2023-04-09T12:26:02.171Z,101452.13
2023-04-09T12:28:30.749Z,101448.69
2023-04-09T12:30:59.415Z,101448.56
2023-04-09T12:33:28.872Z,101447.25
2023-04-09T12:35:58.235Z,101451.88
2023-04-09T12:38:26.721Z,101451.00
2023-04-09T12:40:54.511Z,101444.75
2023-04-09T12:43:22.364Z,101445.13
2023-04-09T12:45:50.218Z,101452.00
2023-04-09T12:48:18.053Z,101455.53
2023-04-09T12:50:47.687Z,101452.72
2023-04-09T12:53:15.630Z,101460.59
2023-04-09T12:55:43.415Z,101448.94
2023-04-09T12:58:11.271Z,101458.28
2023-04-09T13:00:39.184Z,101449.63
2023-04-09T13:03:07.373Z,101436.38
2023-04-09T13:05:35.595Z,101441.59
2023-04-09T13:08:04.847Z,101441.66
2023-04-09T13:10:33.303Z,101434.44
2023-04-09T13:13:01.401Z,101435.00
2023-04-09T13:15:29.206Z,101428.38
2023-04-09T13:17:57.133Z,101429.88
2023-04-09T13:20:25.029Z,101423.66
2023-04-09T13:22:52.881Z,101421.25
2023-04-09T13:25:22.201Z,101416.94
2023-04-09T13:27:50.130Z,101421.66
2023-04-09T13:30:18.254Z,101418.81
2023-04-09T13:32:46.184Z,101416.09
2023-04-09T13:35:14.065Z,101415.34
2023-04-09T13:37:42.116Z,101411.91
2023-04-09T13:40:10.939Z,101424.13
2023-04-09T13:42:40.266Z,101423.19
2023-04-09T13:45:08.815Z,101417.78
2023-04-09T13:47:36.903Z,101413.50
2023-04-09T13:50:06.316Z,101403.81
2023-04-09T13:52:34.120Z,101410.47
2023-04-09T13:55:03.680Z,101414.00
2023-04-09T13:57:31.701Z,101399.22
2023-04-09T14:00:05.085Z,101402.00
2023-04-09T14:02:33.181Z,101389.97
2023-04-09T14:05:02.462Z,101388.06
2023-04-09T14:07:30.779Z,101386.00
2023-04-09T14:09:58.481Z,101379.34
2023-04-09T14:12:26.243Z,101379.03
2023-04-09T14:14:54.088Z,101373.25
2023-04-09T14:17:23.134Z,101378.34
2023-04-09T14:19:51.239Z,101377.38
2023-04-09T14:22:19.133Z,101379.59
2023-04-09T14:24:47.008Z,101372.53
2023-04-09T14:27:14.876Z,101370.41
2023-04-09T14:29:42.829Z,101365.41
2023-04-09T14:32:10.585Z,101368.03
2023-04-09T14:34:39.927Z,101367.16
2023-04-09T14:37:08.722Z,101363.66
2023-04-09T14:39:36.603Z,101367.13
2023-04-09T14:42:04.482Z,101361.00
2023-04-09T14:44:32.859Z,101369.78
2023-04-09T14:47:00.816Z,101375.06
2023-04-09T14:49:28.830Z,101375.81
2023-04-09T14:51:58.929Z,101367.69
2023-04-09T14:54:27.028Z,101371.38
2023-04-09T14:56:54.850Z,101374.13
2023-04-09T14:59:22.709Z,101368.88
2023-04-09T15:01:50.727Z,101357.53
2023-04-09T15:04:18.745Z,101378.53
2023-04-09T15:06:46.871Z,101367.16
2023-04-09T15:09:16.264Z,101363.56
2023-04-09T15:11:44.138Z,101363.53
2023-04-09T15:14:12.059Z,101372.28
2023-04-09T15:16:39.895Z,101352.16
2023-04-09T15:19:08.992Z,101353.78
2023-04-09T15:21:36.754Z,101342.50
2023-04-09T15:24:04.774Z,101349.22
2023-04-09T15:26:34.367Z,101353.59
2023-04-09T15:29:06.395Z,101348.53
2023-04-09T15:31:34.685Z,101358.22
2023-04-09T15:34:02.456Z,101353.88
2023-04-09T15:36:31.505Z,101356.38
2023-04-09T15:38:59.416Z,101359.91
2023-04-09T15:41:27.411Z,101356.25
2023-04-09T15:43:56.621Z,101359.56
2023-04-09T15:46:24.503Z,101358.50
2023-04-09T15:48:52.847Z,101351.34
2023-04-09T15:51:21.266Z,101354.03
2023-04-09T15:53:49.122Z,101356.25
2023-04-09T15:56:16.965Z,101342.47
2023-04-09T15:58:44.842Z,101347.78
2023-04-09T16:01:14.203Z,101344.91
2023-04-09T16:03:42.237Z,101353.53
2023-04-09T16:06:14.437Z,101351.38
2023-04-09T16:08:42.464Z,101352.56
2023-04-09T16:11:10.698Z,101354.88
2023-04-09T16:13:38.543Z,101352.06
2023-04-09T16:16:07.470Z,101349.66
2023-04-09T16:18:36.750Z,101343.72
2023-04-09T16:21:05.683Z,101344.34
2023-04-09T16:23:33.712Z,101334.66
2023-04-09T16:26:01.507Z,101332.44
2023-04-09T16:28:29.390Z,101330.91
2023-04-09T16:30:57.172Z,101321.75
2023-04-09T16:33:25.153Z,101323.03
2023-04-09T16:35:54.328Z,101320.19
2023-04-09T16:38:23.583Z,101325.56
2023-04-09T16:40:51.510Z,101328.38
2023-04-09T16:43:19.390Z,101322.50
2023-04-09T16:45:47.269Z,101323.44
2023-04-09T16:48:15.446Z,101318.03
2023-04-09T16:50:43.508Z,101318.94
2023-04-09T16:53:12.694Z,101315.94
2023-04-09T16:55:40.587Z,101310.31
2023-04-09T16:58:08.312Z,101316.63
2023-04-09T17:00:36.153Z,101314.09
2023-04-09T17:03:04.241Z,101307.75
2023-04-09T17:05:32.540Z,101301.63
2023-04-09T17:08:00.588Z,101298.91
2023-04-09T17:10:29.886Z,101295.88
2023-04-09T17:12:57.710Z,101307.78
2023-04-09T17:15:25.915Z,101305.19
2023-04-09T17:17:53.918Z,101299.84
2023-04-09T17:20:22.669Z,101302.72
2023-04-09T17:22:50.678Z,101296.75
2023-04-09T17:25:20.286Z,101290.38
2023-04-09T17:27:49.390Z,101288.97
2023-04-09T17:30:17.351Z,101290.28
2023-04-09T17:32:45.842Z,101299.66
2023-04-09T17:35:13.785Z,101298.56
2023-04-09T17:37:41.620Z,101296.25
2023-04-09T17:40:12.288Z,101299.53
2023-04-09T17:42:40.991Z,101294.19
2023-04-09T17:45:11.888Z,101303.53
2023-04-09T17:47:40.661Z,101303.25
2023-04-09T17:50:09.800Z,101305.84
2023-04-09T17:52:38.627Z,101313.31
2023-04-09T17:55:07.687Z,101306.03
2023-04-09T17:57:35.834Z,101318.91
2023-04-09T18:00:04.809Z,101319.53
2023-04-09T18:02:34.952Z,101320.25
2023-04-09T18:05:04.862Z,101319.97
2023-04-09T18:07:37.180Z,101323.25
2023-04-09T18:10:06.243Z,101319.22
2023-04-09T18:12:34.084Z,101320.16
2023-04-09T18:15:02.085Z,101314.16
2023-04-09T18:17:30.004Z,101317.31
2023-04-09T18:19:59.176Z,101316.91
2023-04-09T18:22:27.322Z,101320.47
2023-04-09T18:24:55.437Z,101329.19
2023-04-09T18:27:23.270Z,101333.88
2023-04-09T18:29:52.348Z,101325.59
2023-04-09T18:32:20.302Z,101320.84
2023-04-09T18:34:48.388Z,101324.38
2023-04-09T18:37:19.138Z,101331.25
2023-04-09T18:39:47.297Z,101320.75
2023-04-09T18:42:15.322Z,101318.88
2023-04-09T18:44:43.766Z,101327.41
2023-04-09T18:47:11.803Z,101334.25
2023-04-09T18:49:39.545Z,101336.16
2023-04-09T18:52:09.226Z,101332.09
2023-04-09T18:54:38.808Z,101327.47
2023-04-09T18:57:07.377Z,101334.22
2023-04-09T18:59:35.618Z,101337.59
2023-04-09T19:02:05.125Z,101343.53
2023-04-09T19:04:39.602Z,101339.00
2023-04-09T19:07:07.988Z,101336.22
2023-04-09T19:09:37.127Z,101344.75
2023-04-09T19:12:06.543Z,101353.16
2023-04-09T19:14:36.332Z,101342.56
2023-04-09T19:17:04.135Z,101335.16
2023-04-09T19:19:32.451Z,101346.38
2023-04-09T19:22:00.390Z,101347.19
2023-04-09T19:24:28.174Z,101346.00
2023-04-09T19:26:56.562Z,101344.81
2023-04-09T19:29:25.694Z,101350.94
2023-04-09T19:31:53.712Z,101340.72
2023-04-09T19:34:21.709Z,101343.94
2023-04-09T19:36:49.465Z,101347.91
2023-04-09T19:39:17.213Z,101338.06
2023-04-09T19:41:44.985Z,101332.06
2023-04-09T19:44:12.824Z,101329.75
2023-04-09T19:46:42.264Z,101326.34
2023-04-09T19:49:10.275Z,101328.75
2023-04-09T19:51:38.095Z,101324.22
2023-04-09T19:54:05.819Z,101329.53
2023-04-09T19:56:34.054Z,101326.25
2023-04-09T19:59:02.207Z,101322.59
2023-04-09T20:01:30.112Z,101325.00
2023-04-09T20:03:59.482Z,101326.00
2023-04-09T20:06:28.815Z,101332.19
2023-04-09T20:08:56.591Z,101325.94
2023-04-09T20:11:24.525Z,101329.75
2023-04-09T20:13:52.372Z,101332.59
2023-04-09T20:16:20.289Z,101330.13
2023-04-09T20:18:48.201Z,101333.50
2023-04-09T20:21:17.529Z,101343.66
2023-04-09T20:23:45.528Z,101337.75
2023-04-09T20:26:13.620Z,101346.25
2023-04-09T20:28:42.144Z,101339.66
2023-04-09T20:31:09.975Z,101344.84
2023-04-09T20:33:37.820Z,101351.56
2023-04-09T20:36:15.168Z,101349.03
2023-04-09T20:38:44.911Z,101342.38
2023-04-09T20:41:12.708Z,101342.38
2023-04-09T20:43:40.672Z,101334.41
2023-04-09T20:46:08.603Z,101332.00
2023-04-09T20:48:36.455Z,101322.94
2023-04-09T20:51:09.997Z,101324.31
2023-04-09T20:53:38.614Z,101318.63
2023-04-09T20:56:09.113Z,101320.03
2023-04-09T20:58:37.277Z,101326.13
2023-04-09T21:01:07.644Z,101320.03
2023-04-09T21:03:36.230Z,101320.75
2023-04-09T21:06:04.934Z,101312.97
2023-04-09T21:08:32.973Z,101316.75
2023-04-09T21:11:00.882Z,101307.72
2023-04-09T21:13:33.664Z,101306.53
2023-04-09T21:16:08.792Z,101304.63
2023-04-09T21:18:36.688Z,101294.88
2023-04-09T21:21:07.418Z,101294.22
2023-04-09T21:23:35.326Z,101292.50
2023-04-09T21:26:03.454Z,101289.09
2023-04-09T21:28:32.654Z,101289.84
2023-04-09T21:31:00.561Z,101296.81
2023-04-09T21:33:30.056Z,101290.59
2023-04-09T21:35:58.247Z,101294.72
2023-04-09T21:38:26.170Z,101294.34
2023-04-09T21:40:54.072Z,101292.50
2023-04-09T21:43:21.809Z,101292.38
2023-04-09T21:45:51.155Z,101292.31
2023-04-09T21:48:19.068Z,101290.88
2023-04-09T21:50:47.058Z,101292.25
2023-04-09T21:53:15.871Z,101300.53
2023-04-09T21:55:43.702Z,101291.31
2023-04-09T21:58:11.980Z,101292.25
2023-04-09T22:00:40.030Z,101297.56
2023-04-09T22:03:09.439Z,101295.97
2023-04-09T22:05:37.438Z,101301.78
2023-04-09T22:08:05.285Z,101294.88
2023-04-09T22:10:33.374Z,101291.06
2023-04-09T22:13:01.264Z,101282.38
2023-04-09T22:15:29.228Z,101281.47
2023-04-09T22:17:57.593Z,101285.63
2023-04-09T22:20:26.911Z,101282.84
2023-04-09T22:22:54.890Z,101277.28
2023-04-09T22:25:23.050Z,101282.72
2023-04-09T22:27:52.215Z,101273.59
2023-04-09T22:30:21.747Z,101275.94
2023-04-09T22:32:50.011Z,101270.84
2023-04-09T22:35:18.353Z,101285.63
2023-04-09T22:37:47.551Z,101279.03
2023-04-09T22:40:16.633Z,101282.59
2023-04-09T22:42:46.645Z,101294.72
2023-04-09T22:45:14.599Z,101296.47
2023-04-09T22:47:42.456Z,101301.53
2023-04-09T22:50:11.359Z,101305.44
2023-04-09T22:52:39.120Z,101306.13
2023-04-09T22:55:10.097Z,101301.66
2023-04-09T22:57:38.282Z,101312.75
2023-04-09T23:00:08.536Z,101310.69
2023-04-09T23:02:37.058Z,101318.41
2023-04-09T23:05:05.685Z,101315.81
2023-04-09T23:07:33.729Z,101317.91
2023-04-09T23:10:01.773Z,101317.91
2023-04-09T23:12:31.026Z,101318.78
2023-04-09T23:14:58.905Z,101316.78
2023-04-09T23:17:27.672Z,101302.63
2023-04-09T23:19:55.611Z,101309.44
2023-04-09T23:22:24.225Z,101304.88
2023-04-09T23:24:52.042Z,101307.97
2023-04-09T23:27:19.818Z,101306.69
2023-04-09T23:29:49.066Z,101298.47
2023-04-09T23:32:16.867Z,101293.91
2023-04-09T23:34:44.620Z,101297.00
2023-04-09T23:37:12.523Z,101299.41
2023-04-09T23:39:41.116Z,101297.38
2023-04-09T23:42:08.978Z,101297.94
2023-04-09T23:44:36.768Z,101291.66
2023-04-09T23:47:06.549Z,101285.25
2023-04-09T23:49:34.421Z,101285.03
2023-04-09T23:52:02.278Z,101273.81
2023-04-09T23:54:30.635Z,101275.75
2023-04-09T23:56:58.524Z,101269.34
2023-04-09T23:59:26.444Z,101266.91
